Time;durP1;ratioP1;P1;durP2;ratioP2;P2;SDS_P1;SDS_P2;PMS_P1;PMS_P2;Temp;Humidity;BMP_temperature;BMP_pressure;BME280_temperature;BME280_humidity;BME280_pressure;Samples;Min_cycle;Max_cycle;Signal;HPM_P1;HPM_P2
2022/10/21 00:02:00;;;;;;;22.73;16.53;;;17.20;92.50;;;;;;4999119;28;20221;-70
2022/10/21 00:04:27;;;;;;;23.87;18.53;;;17.10;92.40;;;;;;5009861;28;20208;-70
2022/10/21 00:06:54;;;;;;;23.97;18.47;;;17.10;92.20;;;;;;5004563;28;20266;-70
2022/10/21 00:09:21;;;;;;;17.47;13.20;;;17.10;92.20;;;;;;5002654;28;20201;-70
2022/10/21 00:11:48;;;;;;;17.57;13.27;;;17.10;92.00;;;;;;4999549;28;20258;-70
2022/10/21 00:14:15;;;;;;;21.53;12.47;;;17.10;91.80;;;;;;5001867;28;20201;-70
2022/10/21 00:16:42;;;;;;;16.43;12.70;;;17.00;91.60;;;;;;5002706;28;20229;-70
2022/10/21 00:19:09;;;;;;;17.27;13.13;;;17.00;91.50;;;;;;4999628;28;20242;-70
2022/10/21 00:21:39;;;;;;;21.40;12.93;;;17.00;91.60;;;;;;5000126;28;20251;-70
2022/10/21 00:24:07;;;;;;;22.63;11.47;;;16.90;91.70;;;;;;5002802;28;20207;-70
2022/10/21 00:26:34;;;;;;;18.33;12.57;;;16.90;91.80;;;;;;4999756;28;20257;-71
2022/10/21 00:29:04;;;;;;;17.63;12.00;;;16.90;91.70;;;;;;5002870;28;20646;-70
2022/10/21 00:31:33;;;;;;;16.00;12.00;;;16.90;91.80;;;;;;5005654;28;20204;-70
2022/10/21 00:34:00;;;;;;;20.77;11.73;;;16.90;92.00;;;;;;4999297;28;20220;-70
2022/10/21 00:36:27;;;;;;;16.50;13.33;;;16.90;92.10;;;;;;5003370;28;20204;-70
2022/10/21 00:38:55;;;;;;;21.83;12.50;;;16.90;92.20;;;;;;5006148;28;20300;-70
2022/10/21 00:41:22;;;;;;;21.73;12.67;;;16.90;92.30;;;;;;5005410;28;20282;-70
2022/10/21 00:44:00;;;;;;;18.33;13.10;;;17.00;92.50;;;;;;5006724;28;20200;-70
2022/10/21 00:46:38;;;;;;;20.07;13.37;;;17.00;92.60;;;;;;5004252;28;20202;-70
2022/10/21 00:49:33;;;;;;;15.70;13.20;;;17.10;92.60;;;;;;5002399;28;20206;-71
2022/10/21 00:52:02;;;;;;;17.33;12.33;;;17.10;92.70;;;;;;4998745;28;20217;-71
2022/10/21 00:54:30;;;;;;;17.77;13.13;;;17.20;92.80;;;;;;5005873;28;20222;-70
2022/10/21 00:56:58;;;;;;;15.83;12.47;;;17.20;92.90;;;;;;5003554;28;20211;-70
2022/10/21 00:59:32;;;;;;;20.10;14.10;;;17.20;92.90;;;;;;5004956;28;20212;-71
2022/10/21 01:01:59;;;;;;;18.77;13.87;;;17.20;93.00;;;;;;5003496;28;20220;-71
2022/10/21 01:04:26;;;;;;;17.63;13.20;;;17.30;93.10;;;;;;5001620;28;20232;-70
2022/10/21 01:06:54;;;;;;;20.73;14.07;;;17.30;93.10;;;;;;5005676;28;20204;-71
2022/10/21 01:09:21;;;;;;;20.17;13.03;;;17.30;93.20;;;;;;5004325;28;20589;-71
2022/10/21 01:11:49;;;;;;;19.13;12.87;;;17.40;93.20;;;;;;5004765;28;20200;-71
2022/10/21 01:14:27;;;;;;;22.17;13.27;;;17.40;93.30;;;;;;5005692;28;20268;-71
2022/10/21 01:17:06;;;;;;;24.07;12.87;;;17.40;93.30;;;;;;5001926;28;20535;-70
2022/10/21 01:20:10;;;;;;;31.93;15.23;;;17.40;93.20;;;;;;5002729;28;20229;-70
2022/10/21 01:23:05;;;;;;;51.63;17.27;;;17.40;93.20;;;;;;5006355;28;20649;-71
2022/10/21 01:25:32;;;;;;;47.03;19.20;;;17.50;93.30;;;;;;4998291;28;20201;-71
2022/10/21 01:28:08;;;;;;;51.90;19.07;;;17.50;93.30;;;;;;5011883;28;20214;-71
2022/10/21 01:30:41;;;;;;;52.33;21.10;;;17.50;93.50;;;;;;5008208;28;20588;-71
2022/10/21 01:33:20;;;;;;;64.43;19.87;;;17.50;93.50;;;;;;5005009;28;20205;-71
2022/10/21 01:35:55;;;;;;;74.63;19.80;;;17.50;93.70;;;;;;5003560;28;20272;-71
2022/10/21 01:38:50;;;;;;;100.47;20.63;;;17.50;93.70;;;;;;5008162;28;20258;-71
2022/10/21 01:41:38;;;;;;;56.67;18.37;;;17.50;93.90;;;;;;5001032;28;20204;-71
2022/10/21 01:44:39;;;;;;;78.47;21.57;;;17.50;94.00;;;;;;5003493;28;20247;-71
2022/10/21 01:47:21;;;;;;;75.73;21.47;;;17.50;94.20;;;;;;5001848;28;20290;-71
2022/10/21 01:49:53;;;;;;;53.50;22.90;;;17.50;94.30;;;;;;5001233;28;20262;-71
2022/10/21 01:52:21;;;;;;;54.00;24.10;;;17.50;94.40;;;;;;5004621;28;20266;-71
2022/10/21 01:54:55;;;;;;;50.40;21.93;;;17.50;94.50;;;;;;5002497;28;20193;-71
2022/10/21 01:57:26;;;;;;;64.17;21.27;;;17.50;94.60;;;;;;5002030;28;20196;-71
2022/10/21 02:00:04;;;;;;;54.83;21.93;;;17.50;94.60;;;;;;5011983;28;20196;-71
2022/10/21 02:02:36;;;;;;;53.03;21.50;;;17.50;94.60;;;;;;5002411;28;20273;-71
2022/10/21 02:05:11;;;;;;;44.53;20.80;;;17.50;94.60;;;;;;5000988;28;20243;-71
2022/10/21 02:07:38;;;;;;;59.03;21.73;;;17.60;94.60;;;;;;5011086;28;20223;-70
2022/10/21 02:10:05;;;;;;;44.57;21.37;;;17.60;94.50;;;;;;5002205;28;20586;-72
2022/10/21 02:12:34;;;;;;;48.57;20.77;;;17.60;94.50;;;;;;5011993;28;20232;-71
2022/10/21 02:15:06;;;;;;;38.00;19.27;;;17.60;94.50;;;;;;5006573;28;20209;-71
2022/10/21 02:17:36;;;;;;;29.23;20.57;;;17.60;94.50;;;;;;5001542;28;20258;-71
2022/10/21 02:20:07;;;;;;;26.03;19.57;;;17.70;94.50;;;;;;5000333;28;20249;-71
2022/10/21 02:22:37;;;;;;;26.80;19.73;;;17.70;94.50;;;;;;5003247;28;20719;-71
2022/10/21 02:25:10;;;;;;;25.20;20.63;;;17.70;94.60;;;;;;5002083;28;20185;-71
2022/10/21 02:27:37;;;;;;;28.57;21.37;;;17.70;94.30;;;;;;5001476;28;20253;-70
2022/10/21 02:30:05;;;;;;;29.77;21.57;;;17.70;94.20;;;;;;5006445;28;20264;-70
2022/10/21 02:32:47;;;;;;;28.60;20.33;;;17.70;94.20;;;;;;5003076;28;20215;-70
2022/10/21 02:35:46;;;;;;;28.63;21.70;;;17.70;94.20;;;;;;5001518;28;20254;-71
2022/10/21 02:38:30;;;;;;;25.37;20.73;;;17.70;94.20;;;;;;5002640;28;20604;-71
2022/10/21 02:41:02;;;;;;;29.40;20.67;;;17.70;94.20;;;;;;4999220;28;20212;-71
2022/10/21 02:43:39;;;;;;;29.77;21.07;;;17.70;94.20;;;;;;4998854;28;20283;-71
2022/10/21 02:46:09;;;;;;;28.67;21.33;;;17.80;94.10;;;;;;5001033;28;20207;-71
2022/10/21 02:48:39;;;;;;;24.67;19.97;;;17.80;94.10;;;;;;5001155;28;20201;-70
2022/10/21 02:51:06;;;;;;;24.73;18.60;;;17.80;94.10;;;;;;5003227;28;20207;-71
2022/10/21 02:53:34;;;;;;;25.10;20.30;;;17.80;94.10;;;;;;5004592;28;20255;-71
2022/10/21 02:56:02;;;;;;;32.27;20.57;;;17.80;94.10;;;;;;5003823;28;20213;-71
2022/10/21 02:58:29;;;;;;;27.43;20.03;;;17.80;94.40;;;;;;5009261;28;20212;-71
2022/10/21 03:00:56;;;;;;;28.47;20.10;;;17.80;94.10;;;;;;5008416;28;20268;-71
2022/10/21 03:03:23;;;;;;;26.33;20.37;;;17.80;94.10;;;;;;5001909;28;20246;-71
2022/10/21 03:05:51;;;;;;;25.77;19.87;;;17.80;94.10;;;;;;5000715;28;20197;-71
2022/10/21 03:08:18;;;;;;;22.17;19.87;;;17.80;94.10;;;;;;5003169;28;20267;-71
2022/10/21 03:10:48;;;;;;;27.47;21.30;;;17.80;94.10;;;;;;5003760;28;20207;-71
2022/10/21 03:13:20;;;;;;;25.63;21.30;;;17.80;94.10;;;;;;5002520;28;20205;-71
2022/10/21 03:15:48;;;;;;;31.53;21.83;;;17.80;94.00;;;;;;5005193;28;20261;-71
2022/10/21 03:18:16;;;;;;;27.47;21.17;;;17.80;93.90;;;;;;5001389;28;20630;-70
2022/10/21 03:20:43;;;;;;;27.43;22.07;;;17.80;93.80;;;;;;5000028;28;20232;-71
2022/10/21 03:23:10;;;;;;;28.27;20.50;;;17.80;93.70;;;;;;5001828;28;20699;-71
2022/10/21 03:25:37;;;;;;;31.07;20.87;;;17.90;93.60;;;;;;5002875;28;20592;-71
2022/10/21 03:28:04;;;;;;;27.57;21.33;;;17.80;93.60;;;;;;5001196;28;20198;-71
2022/10/21 03:30:31;;;;;;;23.90;21.20;;;17.80;93.60;;;;;;5005203;28;20731;-71
2022/10/21 03:32:58;;;;;;;26.13;21.83;;;17.80;93.50;;;;;;5007394;28;20626;-71
2022/10/21 03:35:26;;;;;;;26.10;22.20;;;17.80;93.50;;;;;;5000557;28;20212;-71
2022/10/21 03:37:53;;;;;;;26.20;20.47;;;17.80;93.60;;;;;;5005319;28;20232;-71
2022/10/21 03:40:22;;;;;;;31.30;23.10;;;17.80;93.60;;;;;;5000105;28;20213;-71
2022/10/21 03:42:49;;;;;;;29.67;22.13;;;17.80;93.60;;;;;;5001904;28;20304;-71
2022/10/21 03:45:16;;;;;;;28.90;22.70;;;17.80;93.60;;;;;;4999951;28;20269;-71
2022/10/21 03:47:45;;;;;;;29.60;23.80;;;17.80;93.60;;;;;;5003477;28;20200;-71
2022/10/21 03:50:12;;;;;;;29.33;23.60;;;17.80;93.60;;;;;;5000662;28;20193;-71
2022/10/21 03:52:46;;;;;;;29.43;23.17;;;17.80;93.50;;;;;;5002862;28;20236;-71
2022/10/21 03:55:13;;;;;;;30.97;24.07;;;17.80;93.50;;;;;;5002095;28;20208;-71
2022/10/21 03:57:40;;;;;;;27.73;23.87;;;17.80;93.40;;;;;;4999840;28;20200;-71
2022/10/21 04:00:09;;;;;;;29.60;24.90;;;17.80;93.40;;;;;;5001322;28;20205;-71
2022/10/21 04:02:39;;;;;;;35.07;24.50;;;17.80;93.40;;;;;;4999158;28;20657;-71
2022/10/21 04:05:07;;;;;;;31.03;24.93;;;17.80;93.40;;;;;;4999927;28;20211;-70
2022/10/21 04:07:34;;;;;;;33.30;24.63;;;17.80;93.40;;;;;;5003506;28;20203;-71
2022/10/21 04:10:01;;;;;;;31.10;24.27;;;17.80;93.30;;;;;;5002726;28;20565;-71
2022/10/21 04:12:28;;;;;;;33.83;24.90;;;17.80;93.30;;;;;;5012966;28;20215;-71
2022/10/21 04:14:55;;;;;;;30.07;24.43;;;17.80;93.30;;;;;;5005296;28;20210;-72
2022/10/21 04:17:22;;;;;;;28.90;24.93;;;17.80;93.30;;;;;;5013303;28;20524;-71
2022/10/21 04:19:49;;;;;;;32.90;24.70;;;17.80;93.30;;;;;;5004632;28;20201;-71
2022/10/21 04:22:16;;;;;;;32.03;24.93;;;17.80;93.30;;;;;;5006323;28;20220;-71
2022/10/21 04:24:43;;;;;;;40.20;27.60;;;17.80;93.30;;;;;;5006281;28;20192;-71
2022/10/21 04:27:10;;;;;;;30.73;24.80;;;17.80;93.30;;;;;;5007481;28;20267;-71
2022/10/21 04:29:37;;;;;;;41.03;27.30;;;17.80;93.30;;;;;;5003329;28;20589;-71
2022/10/21 04:32:04;;;;;;;32.97;25.03;;;17.80;93.30;;;;;;5006216;28;20198;-71
2022/10/21 04:34:31;;;;;;;37.40;27.67;;;17.80;93.20;;;;;;5006111;28;20216;-71
2022/10/21 04:36:58;;;;;;;37.07;27.23;;;17.80;93.30;;;;;;5001914;28;20587;-71
2022/10/21 04:39:31;;;;;;;38.10;30.40;;;17.80;93.30;;;;;;5002654;28;20701;-71
2022/10/21 04:41:58;;;;;;;42.00;30.57;;;17.80;93.30;;;;;;5003797;28;20205;-71
2022/10/21 04:44:24;;;;;;;39.03;30.27;;;17.80;93.30;;;;;;5004681;28;20217;-71
2022/10/21 04:46:51;;;;;;;42.10;30.33;;;17.80;93.30;;;;;;5002451;28;20214;-71
2022/10/21 04:49:18;;;;;;;37.70;29.80;;;17.80;93.40;;;;;;5003873;28;20228;-71
2022/10/21 04:51:46;;;;;;;41.33;29.67;;;17.80;93.40;;;;;;5004086;28;20274;-71
2022/10/21 04:54:13;;;;;;;40.03;31.20;;;17.80;93.40;;;;;;5006550;28;20200;-71
2022/10/21 04:56:41;;;;;;;40.57;30.73;;;17.80;93.40;;;;;;5003543;28;20236;-71
2022/10/21 04:59:08;;;;;;;42.87;33.20;;;17.80;93.40;;;;;;5004714;28;20213;-71
2022/10/21 05:01:35;;;;;;;41.40;31.50;;;17.80;93.40;;;;;;5005358;28;20268;-71
2022/10/21 05:04:02;;;;;;;41.57;31.77;;;17.80;93.30;;;;;;5005798;28;20666;-70
2022/10/21 05:06:29;;;;;;;41.67;33.43;;;17.80;93.40;;;;;;5005346;28;20236;-70
2022/10/21 05:08:56;;;;;;;39.37;30.57;;;17.80;93.40;;;;;;5006799;28;20194;-71
2022/10/21 05:11:23;;;;;;;43.10;33.23;;;17.80;93.40;;;;;;5006150;28;20207;-71
2022/10/21 05:13:50;;;;;;;45.63;32.63;;;17.80;93.50;;;;;;5004595;28;20212;-71
2022/10/21 05:16:17;;;;;;;41.30;34.10;;;17.80;93.60;;;;;;5006362;28;20213;-71
2022/10/21 05:18:44;;;;;;;38.77;32.17;;;17.70;93.60;;;;;;5003423;28;20202;-71
2022/10/21 05:21:11;;;;;;;42.57;31.97;;;17.80;93.70;;;;;;5001759;28;20672;-71
2022/10/21 05:23:38;;;;;;;43.43;33.40;;;17.80;93.70;;;;;;5005776;28;20209;-71
2022/10/21 05:26:05;;;;;;;43.03;32.90;;;17.80;93.70;;;;;;5002891;28;20200;-71
2022/10/21 05:28:33;;;;;;;42.93;32.07;;;17.80;93.70;;;;;;4999710;28;20229;-71
2022/10/21 05:31:00;;;;;;;45.90;32.80;;;17.80;93.70;;;;;;5005575;28;20329;-71
2022/10/21 05:33:27;;;;;;;41.13;33.00;;;17.80;93.70;;;;;;5004528;28;20223;-71
2022/10/21 05:36:00;;;;;;;41.80;32.30;;;17.80;93.60;;;;;;5004833;28;20204;-71
2022/10/21 05:38:28;;;;;;;43.17;33.40;;;17.80;93.70;;;;;;5002864;28;20229;-71
2022/10/21 05:40:56;;;;;;;38.93;32.33;;;17.80;93.60;;;;;;5002695;28;20214;-71
2022/10/21 05:43:23;;;;;;;42.23;31.53;;;17.80;93.70;;;;;;5003124;28;20218;-71
2022/10/21 05:45:50;;;;;;;40.90;33.07;;;17.80;93.70;;;;;;5003735;28;20255;-71
2022/10/21 05:48:18;;;;;;;44.43;33.60;;;17.80;93.70;;;;;;5003975;28;20204;-71
2022/10/21 05:50:46;;;;;;;40.80;32.27;;;17.90;93.70;;;;;;5003232;28;20266;-71
2022/10/21 05:53:13;;;;;;;44.40;35.03;;;17.80;93.60;;;;;;5003176;28;20209;-71
2022/10/21 05:55:40;;;;;;;42.30;32.73;;;17.90;93.60;;;;;;5004278;28;20571;-71
2022/10/21 05:58:07;;;;;;;39.53;31.93;;;17.90;93.60;;;;;;4999867;28;20610;-70
2022/10/21 06:00:34;;;;;;;41.17;31.20;;;17.90;93.60;;;;;;5012562;28;20289;-70
2022/10/21 06:03:02;;;;;;;43.23;33.97;;;17.90;93.70;;;;;;5005162;28;20305;-71
2022/10/21 06:05:29;;;;;;;45.07;33.20;;;17.90;93.70;;;;;;5001538;28;20204;-71
2022/10/21 06:07:56;;;;;;;43.50;33.07;;;17.90;93.70;;;;;;5005301;28;20214;-71
2022/10/21 06:10:23;;;;;;;40.80;33.03;;;17.90;93.70;;;;;;5006039;28;20261;-71
2022/10/21 06:12:55;;;;;;;44.03;33.47;;;17.90;93.70;;;;;;5003431;28;20270;-71
2022/10/21 06:15:22;;;;;;;45.17;31.63;;;17.90;93.70;;;;;;5002923;28;20305;-71
2022/10/21 06:17:50;;;;;;;38.20;32.63;;;18.00;93.70;;;;;;5003206;28;20261;-71
2022/10/21 06:20:18;;;;;;;44.80;33.87;;;18.00;93.70;;;;;;5002662;28;20283;-71
2022/10/21 06:22:45;;;;;;;44.47;31.57;;;18.00;93.60;;;;;;5004680;28;20205;-71
2022/10/21 06:25:12;;;;;;;43.30;31.87;;;18.00;93.60;;;;;;5002938;28;20205;-71
2022/10/21 06:27:39;;;;;;;42.27;31.07;;;18.00;93.70;;;;;;5000774;28;20561;-70
2022/10/21 06:30:07;;;;;;;52.43;32.37;;;18.00;93.70;;;;;;4991161;28;20568;-71
2022/10/21 06:32:34;;;;;;;53.33;33.27;;;18.00;93.70;;;;;;5003330;28;20205;-71
2022/10/21 06:35:02;;;;;;;50.57;32.87;;;18.00;93.70;;;;;;5002286;28;20230;-71
2022/10/21 06:37:29;;;;;;;55.77;35.00;;;18.00;93.70;;;;;;5001426;28;20209;-71
2022/10/21 06:39:56;;;;;;;52.70;33.03;;;18.10;93.80;;;;;;5006754;28;20599;-71
2022/10/21 06:42:23;;;;;;;60.90;35.57;;;18.10;93.80;;;;;;5010301;28;20712;-71
2022/10/21 06:44:50;;;;;;;47.23;32.33;;;18.10;93.80;;;;;;5008191;28;20321;-71
2022/10/21 06:47:20;;;;;;;67.90;35.63;;;18.10;93.80;;;;;;5004494;28;20543;-71
2022/10/21 06:49:47;;;;;;;66.70;35.83;;;18.10;93.80;;;;;;5000620;28;20611;-71
2022/10/21 06:52:14;;;;;;;64.33;37.13;;;18.10;93.90;;;;;;5006634;28;20197;-70
2022/10/21 06:54:41;;;;;;;63.37;37.77;;;18.20;93.90;;;;;;4997068;28;20200;-71
2022/10/21 06:57:08;;;;;;;70.20;39.07;;;18.20;94.00;;;;;;5000382;28;20697;-71
2022/10/21 06:59:35;;;;;;;76.87;41.07;;;18.20;94.00;;;;;;4998677;28;20198;-70
2022/10/21 07:02:02;;;;;;;71.23;41.33;;;18.20;93.90;;;;;;5005835;28;20201;-70
2022/10/21 07:04:29;;;;;;;90.03;43.17;;;18.20;93.90;;;;;;5001467;28;20273;-70
2022/10/21 07:06:56;;;;;;;76.17;42.73;;;18.20;93.90;;;;;;5002831;28;20265;-71
2022/10/21 07:09:23;;;;;;;86.67;42.93;;;18.30;93.90;;;;;;4998927;28;20273;-71
2022/10/21 07:11:50;;;;;;;91.30;44.67;;;18.30;93.90;;;;;;5004255;28;20198;-71
2022/10/21 07:14:17;;;;;;;79.73;43.00;;;18.30;94.00;;;;;;5000754;28;20264;-71
2022/10/21 07:16:44;;;;;;;80.83;43.17;;;18.30;94.00;;;;;;5006143;28;20213;-71
2022/10/21 07:19:11;;;;;;;95.83;44.67;;;18.20;94.10;;;;;;5000157;28;20280;-71
2022/10/21 07:21:38;;;;;;;87.20;43.80;;;18.30;94.50;;;;;;5009711;28;20290;-71
2022/10/21 07:24:05;;;;;;;100.47;47.27;;;18.20;94.20;;;;;;5003027;28;20213;-71
2022/10/21 07:26:33;;;;;;;102.10;46.53;;;18.20;94.30;;;;;;5003192;28;20248;-71
2022/10/21 07:29:01;;;;;;;90.23;40.03;;;18.30;94.30;;;;;;5002666;28;20201;-71
2022/10/21 07:31:34;;;;;;;91.37;39.50;;;18.20;94.40;;;;;;5000564;28;20669;-71
2022/10/21 07:34:04;;;;;;;118.90;49.03;;;18.20;94.40;;;;;;5000669;28;20197;-71
2022/10/21 07:36:39;;;;;;;87.37;41.17;;;18.20;94.50;;;;;;5002567;28;20650;-71
2022/10/21 07:39:11;;;;;;;72.80;38.87;;;18.20;94.50;;;;;;5002317;28;20205;-71
2022/10/21 07:41:47;;;;;;;82.37;39.93;;;18.20;94.60;;;;;;5008964;28;20205;-71
2022/10/21 07:44:15;;;;;;;68.80;37.53;;;18.20;94.80;;;;;;5002323;28;20295;-71
2022/10/21 07:46:43;;;;;;;83.50;42.90;;;18.20;94.80;;;;;;5003836;28;20261;-71
2022/10/21 07:49:11;;;;;;;141.30;61.40;;;18.30;94.90;;;;;;5005080;28;20200;-71
2022/10/21 07:51:39;;;;;;;148.43;60.97;;;18.30;94.90;;;;;;5004966;28;20552;-72
2022/10/21 07:54:06;;;;;;;147.17;60.47;;;18.30;94.90;;;;;;5009983;28;20524;-71
2022/10/21 07:56:37;;;;;;;154.13;63.57;;;18.30;94.80;;;;;;5006517;28;20617;-69
2022/10/21 07:59:05;;;;;;;147.13;61.20;;;18.30;94.80;;;;;;5004214;28;20203;-70
2022/10/21 08:01:42;;;;;;;148.57;63.37;;;18.30;94.80;;;;;;5008014;28;20211;-70
2022/10/21 08:04:13;;;;;;;139.83;61.63;;;18.40;94.80;;;;;;5006408;28;20211;-71
2022/10/21 08:06:40;;;;;;;148.60;61.43;;;18.40;94.80;;;;;;5005391;28;20213;-69
2022/10/21 08:09:07;;;;;;;148.40;61.23;;;18.40;94.80;;;;;;5005702;28;20198;-71
2022/10/21 08:11:34;;;;;;;135.07;58.77;;;18.50;94.80;;;;;;5009100;28;20539;-69
2022/10/21 08:14:06;;;;;;;140.60;59.03;;;18.40;94.70;;;;;;5001756;28;20243;-69
2022/10/21 08:16:33;;;;;;;118.30;53.50;;;18.50;94.70;;;;;;5003729;28;20260;-68
2022/10/21 08:19:01;;;;;;;107.53;52.53;;;18.50;94.70;;;;;;5007055;28;20203;-70
2022/10/21 08:21:30;;;;;;;133.20;54.37;;;18.50;94.70;;;;;;5010284;28;20238;-70
2022/10/21 08:23:58;;;;;;;116.97;52.13;;;18.60;94.60;;;;;;5005472;28;20667;-70
2022/10/21 08:26:25;;;;;;;116.93;53.50;;;18.60;94.60;;;;;;5004566;28;20222;-70
2022/10/21 08:28:52;;;;;;;120.77;53.90;;;18.60;94.50;;;;;;5003950;28;20242;-69
2022/10/21 08:31:21;;;;;;;109.57;50.20;;;18.60;94.50;;;;;;5003032;28;20202;-68
2022/10/21 08:33:48;;;;;;;102.13;49.10;;;18.60;94.40;;;;;;5004991;28;20207;-68
2022/10/21 08:36:21;;;;;;;108.47;49.90;;;18.70;94.40;;;;;;5018378;28;20211;-71
2022/10/21 08:38:49;;;;;;;113.53;50.10;;;18.70;94.40;;;;;;5006106;28;20603;-67
2022/10/21 08:41:27;;;;;;;111.93;49.23;;;18.70;94.40;;;;;;5004145;28;20255;-69
2022/10/21 08:44:01;;;;;;;111.27;48.43;;;18.70;94.30;;;;;;5004579;28;20223;-66
2022/10/21 08:46:46;;;;;;;107.37;48.03;;;18.80;94.30;;;;;;5005018;28;20207;-65
2022/10/21 08:49:25;;;;;;;110.77;49.00;;;18.80;94.30;;;;;;5006205;28;20260;-68
2022/10/21 08:52:03;;;;;;;108.10;46.93;;;18.80;94.50;;;;;;5003022;28;20210;-68
2022/10/21 08:54:46;;;;;;;121.50;50.10;;;18.80;94.20;;;;;;5004704;28;20227;-71
2022/10/21 08:57:14;;;;;;;93.17;44.17;;;18.90;94.20;;;;;;5001134;28;20202;-69
2022/10/21 08:59:41;;;;;;;83.87;42.43;;;18.90;94.20;;;;;;5005396;28;20206;-69
2022/10/21 09:02:11;;;;;;;75.53;40.13;;;19.00;94.20;;;;;;5006484;28;20214;-69
2022/10/21 09:05:00;;;;;;;90.60;42.80;;;19.00;94.10;;;;;;5003612;28;20241;-70
2022/10/21 09:07:40;;;;;;;95.40;45.47;;;19.10;94.00;;;;;;5005878;28;20214;-68
2022/10/21 09:10:32;;;;;;;91.80;44.67;;;19.10;93.80;;;;;;5005948;28;20567;-68
2022/10/21 09:13:11;;;;;;;88.93;44.80;;;19.10;93.60;;;;;;5008434;28;20206;-69
2022/10/21 09:16:02;;;;;;;91.87;45.77;;;19.10;93.50;;;;;;5004571;28;20214;-69
2022/10/21 09:18:53;;;;;;;104.47;46.47;;;19.10;93.50;;;;;;5006560;28;20233;-68
2022/10/21 09:21:48;;;;;;;102.47;44.67;;;19.10;93.50;;;;;;5003967;28;20261;-68
2022/10/21 09:24:26;;;;;;;64.37;34.40;;;19.10;93.50;;;;;;5004441;28;20323;-69
2022/10/21 09:26:54;;;;;;;49.33;33.60;;;19.10;93.50;;;;;;5004894;28;20264;-67
2022/10/21 09:29:30;;;;;;;51.03;31.63;;;19.10;93.40;;;;;;5003222;28;20230;-70
2022/10/21 09:32:18;;;;;;;46.27;31.30;;;19.10;93.30;;;;;;5000082;28;20210;-70
2022/10/21 09:34:48;;;;;;;43.13;30.90;;;19.00;93.40;;;;;;5007920;28;20219;-66
2022/10/21 09:37:31;;;;;;;53.73;31.40;;;19.00;93.50;;;;;;5002172;28;20258;-69
2022/10/21 09:40:18;;;;;;;44.13;29.30;;;19.00;93.60;;;;;;5010651;28;20519;-68
2022/10/21 09:42:49;;;;;;;41.97;30.17;;;19.00;93.60;;;;;;5004287;28;20656;-69
2022/10/21 09:45:19;;;;;;;41.60;29.43;;;19.00;93.70;;;;;;5002950;28;20230;-70
2022/10/21 09:47:52;;;;;;;45.60;31.30;;;19.00;93.80;;;;;;5004309;28;20260;-67
2022/10/21 09:50:20;;;;;;;54.00;34.17;;;19.00;93.90;;;;;;5003702;28;20263;-68
2022/10/21 09:52:56;;;;;;;61.37;38.40;;;19.00;93.90;;;;;;5001712;28;20192;-69
2022/10/21 09:55:24;;;;;;;54.53;37.07;;;19.00;93.90;;;;;;5004624;28;20240;-69
2022/10/21 09:57:57;;;;;;;57.20;40.17;;;19.00;93.90;;;;;;5003271;28;20280;-68
2022/10/21 10:00:48;;;;;;;51.87;35.07;;;19.00;93.80;;;;;;5003838;28;20681;-67
2022/10/21 10:03:33;;;;;;;55.50;36.23;;;19.00;93.70;;;;;;5002930;28;20210;-68
2022/10/21 10:06:01;;;;;;;54.80;38.70;;;19.10;93.60;;;;;;4997631;28;20214;-68
2022/10/21 10:08:42;;;;;;;57.13;37.67;;;19.10;93.60;;;;;;5002304;28;20640;-68
2022/10/21 10:11:09;;;;;;;48.07;34.70;;;19.10;93.60;;;;;;5001439;28;20281;-68
2022/10/21 10:13:42;;;;;;;50.43;37.03;;;19.20;93.60;;;;;;5012059;28;20603;-68
2022/10/21 10:16:15;;;;;;;48.43;37.03;;;19.20;93.50;;;;;;5001923;28;20214;-66
2022/10/21 10:18:43;;;;;;;48.73;36.97;;;19.30;93.40;;;;;;5002909;28;20202;-69
2022/10/21 10:21:10;;;;;;;45.53;35.50;;;19.30;93.10;;;;;;5001859;28;20239;-69
2022/10/21 10:23:52;;;;;;;50.30;36.97;;;19.40;92.90;;;;;;5003068;28;20227;-72
2022/10/21 10:26:31;;;;;;;54.30;37.73;;;19.30;92.90;;;;;;5005230;28;20194;-69
2022/10/21 10:29:26;;;;;;;47.03;36.20;;;19.40;93.00;;;;;;5000755;28;20226;-71
2022/10/21 10:31:59;;;;;;;54.83;38.63;;;19.40;93.00;;;;;;5001625;28;20542;-69
2022/10/21 10:34:34;;;;;;;53.03;36.67;;;19.40;93.00;;;;;;5003898;28;20210;-69
2022/10/21 10:37:05;;;;;;;50.10;37.33;;;19.50;93.20;;;;;;5003258;28;20210;-66
2022/10/21 10:39:36;;;;;;;48.10;34.93;;;19.60;93.30;;;;;;5001045;28;20277;-68
2022/10/21 10:42:03;;;;;;;45.83;34.70;;;19.60;93.20;;;;;;5005106;28;20198;-68
2022/10/21 10:44:40;;;;;;;44.90;35.93;;;19.70;93.20;;;;;;5003578;28;20218;-66
2022/10/21 10:47:21;;;;;;;44.93;33.40;;;19.70;93.10;;;;;;5003355;28;20237;-69
2022/10/21 10:49:50;;;;;;;51.63;34.67;;;19.80;93.10;;;;;;5004900;28;20214;-68
2022/10/21 10:52:25;;;;;;;47.57;36.33;;;19.90;93.00;;;;;;4998499;28;20231;-70
2022/10/21 10:55:15;;;;;;;51.57;35.03;;;19.90;92.90;;;;;;5003659;28;20210;-68
2022/10/21 10:57:47;;;;;;;47.97;34.37;;;20.00;92.80;;;;;;4999818;28;20544;-68
2022/10/21 11:00:41;;;;;;;49.80;36.10;;;20.00;92.70;;;;;;5004727;28;20326;-69
2022/10/21 11:03:19;;;;;;;44.17;33.97;;;20.00;92.60;;;;;;5004499;28;20300;-68
2022/10/21 11:05:56;;;;;;;43.47;34.17;;;20.10;92.50;;;;;;5003213;28;20225;-66
2022/10/21 11:08:31;;;;;;;46.37;34.37;;;20.10;92.40;;;;;;5011933;28;20203;-69
2022/10/21 11:11:04;;;;;;;45.10;33.50;;;20.10;92.40;;;;;;5004062;28;20747;-67
2022/10/21 11:13:35;;;;;;;43.13;34.00;;;20.10;92.40;;;;;;5001974;28;20196;-65
2022/10/21 11:16:32;;;;;;;46.63;33.77;;;20.10;92.40;;;;;;5004653;28;20203;-69
2022/10/21 11:20:00;;;;;;;48.67;33.40;;;20.20;92.40;;;;;;5002776;28;20291;-70
2022/10/21 11:22:40;;;;;;;49.57;36.30;;;20.20;92.30;;;;;;5024005;28;20733;-71
2022/10/21 11:25:42;;;;;;;52.47;37.87;;;20.30;92.30;;;;;;5026195;28;20246;-70
2022/10/21 11:28:19;;;;;;;59.17;38.60;;;20.30;92.20;;;;;;5007181;28;20223;-70
2022/10/21 11:31:16;;;;;;;55.23;37.13;;;20.30;92.20;;;;;;5000880;28;20255;-70
2022/10/21 11:33:46;;;;;;;52.43;35.70;;;20.40;92.20;;;;;;5004256;28;20200;-70
2022/10/21 11:36:22;;;;;;;49.87;35.27;;;20.50;92.20;;;;;;4999860;28;20215;-69
2022/10/21 11:39:37;;;;;;;51.03;35.63;;;20.60;92.10;;;;;;5001622;28;20206;-70
2022/10/21 11:42:16;;;;;;;53.57;34.97;;;20.80;91.80;;;;;;5009819;28;20209;-70
2022/10/21 11:45:01;;;;;;;46.00;33.03;;;20.90;91.70;;;;;;4999287;28;20581;-70
2022/10/21 11:47:35;;;;;;;46.20;35.73;;;20.90;91.40;;;;;;5002147;28;20200;-70
2022/10/21 11:50:31;;;;;;;51.57;36.00;;;21.00;91.20;;;;;;5003509;28;20551;-70
2022/10/21 11:53:29;;;;;;;44.23;33.40;;;21.00;91.10;;;;;;5001019;28;20207;-70
2022/10/21 11:56:13;;;;;;;48.53;33.83;;;21.00;91.00;;;;;;5003109;28;20200;-70
2022/10/21 11:59:03;;;;;;;47.37;34.10;;;21.00;90.90;;;;;;5001333;28;20270;-70
2022/10/21 12:01:45;;;;;;;54.77;35.93;;;21.00;90.80;;;;;;5000994;28;20204;-69
2022/10/21 12:04:48;;;;;;;50.40;36.03;;;21.10;90.80;;;;;;5002337;28;20230;-71
2022/10/21 12:07:44;;;;;;;53.23;36.67;;;21.10;90.70;;;;;;4986089;28;20207;-68
2022/10/21 12:10:38;;;;;;;53.47;36.37;;;21.10;90.70;;;;;;5002319;28;20219;-71
2022/10/21 12:13:18;;;;;;;51.30;36.53;;;21.10;90.60;;;;;;5002204;28;20206;-70
2022/10/21 12:15:50;;;;;;;53.43;37.13;;;21.00;90.60;;;;;;5003351;28;20235;-66
2022/10/21 12:18:21;;;;;;;50.70;35.67;;;21.00;90.50;;;;;;5003750;28;20258;-70
2022/10/21 12:20:52;;;;;;;53.27;36.70;;;21.00;90.50;;;;;;5003643;28;20318;-70
2022/10/21 12:23:23;;;;;;;53.87;37.00;;;21.00;90.50;;;;;;5000957;28;20205;-71
2022/10/21 12:26:02;;;;;;;52.60;37.13;;;21.00;90.50;;;;;;5000226;28;20341;-70
2022/10/21 12:28:44;;;;;;;54.63;37.20;;;21.00;90.50;;;;;;4999946;28;20269;-70
2022/10/21 12:31:34;;;;;;;50.20;36.47;;;21.00;90.50;;;;;;5000449;28;20239;-70
2022/10/21 12:34:02;;;;;;;53.47;37.57;;;21.00;90.50;;;;;;5005105;28;20580;-67
2022/10/21 12:36:39;;;;;;;53.20;37.37;;;21.00;90.40;;;;;;5004904;28;20243;-69
2022/10/21 12:39:34;;;;;;;55.70;37.40;;;20.90;90.40;;;;;;5002908;28;20657;-67
2022/10/21 12:42:27;;;;;;;60.27;36.57;;;20.90;90.40;;;;;;5006290;28;20258;-70
2022/10/21 12:44:54;;;;;;;59.30;38.63;;;20.90;90.50;;;;;;5003219;28;20696;-69
2022/10/21 12:47:33;;;;;;;54.77;38.40;;;20.90;90.60;;;;;;5003959;28;20204;-70
2022/10/21 12:50:28;;;;;;;52.90;37.30;;;20.90;90.70;;;;;;5005799;28;20550;-70
2022/10/21 12:53:14;;;;;;;56.60;39.00;;;20.90;90.50;;;;;;5003888;28;20196;-66
2022/10/21 12:55:48;;;;;;;54.63;37.60;;;20.90;90.50;;;;;;5004178;28;20203;-68